createdAt,value
2019-03-18T00:00:02.770Z,1022.87
2019-03-18T00:01:02.755Z,1022.83
2019-03-18T00:02:02.743Z,1022.89
2019-03-18T00:03:02.728Z,1022.83
2019-03-18T00:04:02.712Z,1022.84
2019-03-18T00:05:02.699Z,1022.86
2019-03-18T00:06:02.683Z,1022.92
2019-03-18T00:07:02.669Z,1022.91
2019-03-18T00:08:02.653Z,1022.97
2019-03-18T00:09:02.642Z,1022.99
2019-03-18T00:10:02.625Z,1023.02
2019-03-18T00:11:02.611Z,1023.01
2019-03-18T00:12:02.595Z,1022.95
2019-03-18T00:13:02.583Z,1022.98
2019-03-18T00:14:02.569Z,1022.95
2019-03-18T00:15:02.553Z,1022.97
2019-03-18T00:16:02.538Z,1022.99
2019-03-18T00:17:02.523Z,1023.02
2019-03-18T00:18:02.510Z,1022.99
2019-03-18T00:19:02.494Z,1022.96
2019-03-18T00:20:02.480Z,1022.92
2019-03-18T00:21:02.465Z,1022.95
2019-03-18T00:22:02.452Z,1023.04
2019-03-18T00:23:02.437Z,1023.07
2019-03-18T00:24:02.422Z,1023.15
2019-03-18T00:25:02.407Z,1023.13
2019-03-18T00:26:02.392Z,1023.13
2019-03-18T00:27:02.379Z,1023.11
2019-03-18T00:28:02.363Z,1023.07
2019-03-18T00:29:02.418Z,1023.1
2019-03-18T00:30:02.339Z,1023.13
2019-03-18T00:31:02.320Z,1023.14
2019-03-18T00:32:02.306Z,1023.13
2019-03-18T00:33:03.306Z,1023.15
2019-03-18T00:34:02.277Z,1023.15
2019-03-18T00:35:02.262Z,1023.05
2019-03-18T00:36:02.248Z,1023.06
2019-03-18T00:37:02.233Z,1023.06
2019-03-18T00:38:02.217Z,1023.07
2019-03-18T00:39:02.203Z,1023.12
2019-03-18T00:40:02.188Z,1023.14
2019-03-18T00:41:02.173Z,1023.11
2019-03-18T00:42:02.160Z,1023.09
2019-03-18T00:43:02.145Z,1023.08
2019-03-18T00:44:02.135Z,1023.11
2019-03-18T00:45:14.012Z,1023.13
2019-03-18T00:46:02.101Z,1023.14
2019-03-18T00:47:02.087Z,1023.15
2019-03-18T00:48:02.074Z,1023.2
2019-03-18T00:49:02.058Z,1023.23
2019-03-18T00:50:02.042Z,1023.24
2019-03-18T00:51:02.028Z,1023.23
2019-03-18T00:52:02.012Z,1023.24
2019-03-18T00:53:01.998Z,1023.27
2019-03-18T00:54:01.986Z,1023.26
2019-03-18T00:55:01.969Z,1023.29
2019-03-18T00:56:01.954Z,1023.32
2019-03-18T00:57:01.940Z,1023.37
2019-03-18T00:58:01.926Z,1023.4
2019-03-18T00:59:01.911Z,1023.39
2019-03-18T01:00:01.898Z,1023.4
2019-03-18T01:01:01.881Z,1023.36
2019-03-18T01:02:01.866Z,1023.39
2019-03-18T01:03:01.849Z,1023.39
2019-03-18T01:04:01.835Z,1023.31
2019-03-18T01:05:01.829Z,1023.35
2019-03-18T01:06:01.807Z,1023.36
2019-03-18T01:07:01.792Z,1023.33
2019-03-18T01:08:01.777Z,1023.32
2019-03-18T01:09:01.763Z,1023.33
2019-03-18T01:10:01.746Z,1023.33
2019-03-18T01:11:01.733Z,1023.38
2019-03-18T01:12:01.718Z,1023.38
2019-03-18T01:13:01.702Z,1023.43
2019-03-18T01:14:01.688Z,1023.43
2019-03-18T01:15:01.697Z,1023.46
2019-03-18T01:16:01.659Z,1023.44
2019-03-18T01:17:01.644Z,1023.52
2019-03-18T01:18:01.629Z,1023.62
2019-03-18T01:19:01.614Z,1023.64
2019-03-18T01:20:01.599Z,1023.7
2019-03-18T01:21:01.583Z,1023.73
2019-03-18T01:22:01.569Z,1023.68
2019-03-18T01:23:01.555Z,1023.73
2019-03-18T01:24:01.540Z,1023.69
2019-03-18T01:25:01.525Z,1023.66
2019-03-18T01:26:01.510Z,1023.67
2019-03-18T01:27:01.495Z,1023.66
2019-03-18T01:28:01.485Z,1023.66
2019-03-18T01:29:01.465Z,1023.72
2019-03-18T01:30:01.451Z,1023.67
2019-03-18T01:31:01.438Z,1023.75
2019-03-18T01:32:01.422Z,1023.75
2019-03-18T01:33:01.405Z,1023.74
2019-03-18T01:34:01.395Z,1023.7
2019-03-18T01:35:01.377Z,1023.66
2019-03-18T01:36:01.376Z,1023.61
2019-03-18T01:37:01.345Z,1023.63
2019-03-18T01:38:01.331Z,1023.63
2019-03-18T01:39:01.316Z,1023.62
2019-03-18T01:40:01.301Z,1023.57
2019-03-18T01:41:01.285Z,1023.59
2019-03-18T01:42:01.271Z,1023.6
2019-03-18T01:43:01.255Z,1023.56
2019-03-18T01:44:01.240Z,1023.6
2019-03-18T01:45:01.227Z,1023.64
2019-03-18T01:46:01.213Z,1023.64
2019-03-18T01:47:01.195Z,1023.6
2019-03-18T01:48:01.182Z,1023.6
2019-03-18T01:49:01.166Z,1023.63
2019-03-18T01:50:01.152Z,1023.64
2019-03-18T01:51:01.139Z,1023.61
2019-03-18T01:52:01.123Z,1023.64
2019-03-18T01:53:01.106Z,1023.67
2019-03-18T01:54:01.092Z,1023.63
2019-03-18T01:55:01.089Z,1023.64
2019-03-18T01:56:01.061Z,1023.67
2019-03-18T01:57:01.046Z,1023.73
2019-03-18T01:58:01.032Z,1023.69
2019-03-18T01:59:01.016Z,1023.7
2019-03-18T02:00:01.002Z,1023.68
2019-03-18T02:01:00.987Z,1023.67
2019-03-18T02:02:00.971Z,1023.69
2019-03-18T02:03:00.957Z,1023.66
2019-03-18T02:04:00.943Z,1023.76
2019-03-18T02:05:00.927Z,1023.74
2019-03-18T02:06:00.912Z,1023.75
2019-03-18T02:07:00.898Z,1023.69
2019-03-18T02:08:00.882Z,1023.71
2019-03-18T02:09:00.869Z,1023.74
2019-03-18T02:10:00.852Z,1023.64
2019-03-18T02:11:00.837Z,1023.69
2019-03-18T02:12:00.821Z,1023.7
2019-03-18T02:13:00.807Z,1023.67
2019-03-18T02:14:00.791Z,1023.7
2019-03-18T02:15:00.777Z,1023.68
2019-03-18T02:16:00.761Z,1023.64
2019-03-18T02:17:00.746Z,1023.64
2019-03-18T02:18:00.731Z,1023.58
2019-03-18T02:19:00.721Z,1023.62
2019-03-18T02:20:00.701Z,1023.55
2019-03-18T02:21:00.686Z,1023.59
2019-03-18T02:22:00.671Z,1023.59
2019-03-18T02:23:00.655Z,1023.62
2019-03-18T02:24:00.641Z,1023.58
2019-03-18T02:25:00.626Z,1023.58
2019-03-18T02:26:00.612Z,1023.57
2019-03-18T02:27:00.595Z,1023.61
2019-03-18T02:28:00.580Z,1023.62
2019-03-18T02:29:00.565Z,1023.62
2019-03-18T02:30:00.567Z,1023.62
2019-03-18T02:31:00.537Z,1023.63
2019-03-18T02:32:00.520Z,1023.67
2019-03-18T02:33:00.504Z,1023.66
2019-03-18T02:34:00.490Z,1023.68
2019-03-18T02:35:00.506Z,1023.73
2019-03-18T02:36:00.460Z,1023.66
2019-03-18T02:37:00.445Z,1023.73
2019-03-18T02:38:00.440Z,1023.74
2019-03-18T02:39:00.414Z,1023.81
2019-03-18T02:40:00.491Z,1023.74
2019-03-18T02:41:00.384Z,1023.76
2019-03-18T02:42:00.387Z,1023.78
2019-03-18T02:43:00.353Z,1023.82
2019-03-18T02:44:00.366Z,1023.79
2019-03-18T02:45:00.507Z,1023.8
2019-03-18T02:46:09.658Z,1023.8
2019-03-18T02:47:00.293Z,1023.81
2019-03-18T02:48:00.283Z,1023.77
2019-03-18T02:49:00.262Z,1023.85
2019-03-18T02:50:00.502Z,1023.88
2019-03-18T02:51:00.232Z,1023.91
2019-03-18T02:52:00.219Z,1023.84
2019-03-18T02:53:00.203Z,1023.88
2019-03-18T02:54:00.186Z,1023.83
2019-03-18T02:55:00.452Z,1023.81
2019-03-18T02:56:00.170Z,1023.82
2019-03-18T02:57:00.140Z,1023.83
2019-03-18T02:58:00.138Z,1023.85
2019-03-18T02:59:00.111Z,1023.84
2019-03-18T03:00:00.133Z,1023.85
2019-03-18T03:01:00.078Z,1023.79
2019-03-18T03:02:00.067Z,1023.81
2019-03-18T03:03:00.054Z,1023.82
2019-03-18T03:04:00.045Z,1023.89
2019-03-18T03:05:00.026Z,1023.83
2019-03-18T03:06:00.006Z,1023.83
2019-03-18T03:07:00.001Z,1023.8
2019-03-18T03:07:59.977Z,1023.82
2019-03-18T03:08:59.959Z,1023.78
2019-03-18T03:09:59.944Z,1023.77
2019-03-18T03:10:59.927Z,1023.78
2019-03-18T03:11:59.914Z,1023.8
2019-03-18T03:12:59.922Z,1023.76
2019-03-18T03:13:59.886Z,1023.76
2019-03-18T03:14:59.868Z,1023.77
2019-03-18T03:15:59.856Z,1023.83
2019-03-18T03:16:59.838Z,1023.82
2019-03-18T03:17:59.821Z,1023.83
2019-03-18T03:18:59.806Z,1023.91
2019-03-18T03:19:59.792Z,1023.95
2019-03-18T03:20:59.795Z,1023.93
2019-03-18T03:21:59.761Z,1023.96
2019-03-18T03:22:59.750Z,1023.94
2019-03-18T03:23:59.737Z,1023.97
2019-03-18T03:24:59.716Z,1023.97
2019-03-18T03:25:59.700Z,1023.94
2019-03-18T03:26:59.685Z,1024
2019-03-18T03:27:59.671Z,1024.02
2019-03-18T03:28:59.655Z,1023.97
2019-03-18T03:29:59.639Z,1023.94
2019-03-18T03:30:59.631Z,1024
2019-03-18T03:31:59.610Z,1023.99
2019-03-18T03:32:59.608Z,1024.01
2019-03-18T03:33:59.577Z,1024.02
2019-03-18T03:34:59.563Z,1024.02
2019-03-18T03:35:59.548Z,1024
2019-03-18T03:36:59.532Z,1024.04
2019-03-18T03:37:59.518Z,1024.05
2019-03-18T03:38:59.505Z,1024.08
2019-03-18T03:39:59.488Z,1024.1
2019-03-18T03:40:59.478Z,1024.14
2019-03-18T03:41:59.459Z,1024.08
2019-03-18T03:42:59.443Z,1024.1
2019-03-18T03:43:59.433Z,1024.11
2019-03-18T03:44:59.411Z,1024.15
2019-03-18T03:45:59.396Z,1024.07
2019-03-18T03:46:59.412Z,1024.11
2019-03-18T03:47:59.368Z,1024.11
2019-03-18T03:48:59.349Z,1024.13
2019-03-18T03:49:59.337Z,1024.14
2019-03-18T03:50:59.319Z,1024.09
2019-03-18T03:51:59.305Z,1024.08
2019-03-18T03:52:59.289Z,1024.2
2019-03-18T03:53:59.275Z,1024.11
2019-03-18T03:54:59.258Z,1024.1
2019-03-18T03:55:59.242Z,1024.15
2019-03-18T03:56:59.229Z,1024.17
2019-03-18T03:57:59.212Z,1024.14
2019-03-18T03:58:59.197Z,1024.13
2019-03-18T03:59:59.183Z,1024.21
2019-03-18T04:00:59.168Z,1024.11
2019-03-18T04:01:59.157Z,1024.16
2019-03-18T04:02:59.135Z,1024.14
2019-03-18T04:03:59.120Z,1024.12
2019-03-18T04:04:59.107Z,1024.1
2019-03-18T04:05:59.091Z,1024.14
2019-03-18T04:06:59.075Z,1024.12
2019-03-18T04:07:59.069Z,1024.17
2019-03-18T04:08:59.045Z,1024.11
2019-03-18T04:09:59.028Z,1024.21
2019-03-18T04:10:59.013Z,1024.16
2019-03-18T04:11:58.999Z,1024.23
2019-03-18T04:12:58.988Z,1024.19
2019-03-18T04:13:58.969Z,1024.17
2019-03-18T04:14:58.955Z,1024.17
2019-03-18T04:15:58.938Z,1024.21
2019-03-18T04:17:02.572Z,1024.21
2019-03-18T04:17:58.949Z,1024.17
2019-03-18T04:18:58.893Z,1024.23
2019-03-18T04:19:58.876Z,1024.28
2019-03-18T04:20:58.860Z,1024.16
2019-03-18T04:21:58.848Z,1024.29
2019-03-18T04:22:58.831Z,1024.22
2019-03-18T04:23:58.815Z,1024.25
2019-03-18T04:24:58.799Z,1024.31
2019-03-18T04:25:58.786Z,1024.31
2019-03-18T04:26:58.769Z,1024.29
2019-03-18T04:27:58.759Z,1024.34
2019-03-18T04:28:58.739Z,1024.29
2019-03-18T04:29:58.724Z,1024.25
2019-03-18T04:30:58.707Z,1024.3
2019-03-18T04:31:58.691Z,1024.32
2019-03-18T04:32:58.679Z,1024.26
2019-03-18T04:33:58.662Z,1024.21
2019-03-18T04:34:58.646Z,1024.18
2019-03-18T04:35:58.644Z,1024.07
2019-03-18T04:36:58.617Z,1024.01
2019-03-18T04:37:58.601Z,1023.94
2019-03-18T04:38:58.585Z,1023.89
2019-03-18T04:39:58.570Z,1023.88
2019-03-18T04:40:58.555Z,1023.84
2019-03-18T04:41:58.579Z,1023.87
2019-03-18T04:42:58.524Z,1023.81
2019-03-18T04:43:58.509Z,1023.81
2019-03-18T04:44:58.495Z,1023.86
2019-03-18T04:45:58.477Z,1023.84
2019-03-18T04:46:58.466Z,1023.84
2019-03-18T04:47:58.448Z,1023.84
2019-03-18T04:48:58.434Z,1023.83
2019-03-18T04:49:58.417Z,1023.91
2019-03-18T04:50:58.402Z,1023.89
2019-03-18T04:51:58.416Z,1023.92
2019-03-18T04:52:58.374Z,1023.98
2019-03-18T04:53:58.359Z,1023.96
2019-03-18T04:54:58.344Z,1024
2019-03-18T04:55:58.329Z,1024.01
2019-03-18T04:56:58.314Z,1024.02
2019-03-18T04:57:58.300Z,1024.05
2019-03-18T04:58:58.285Z,1024.07
2019-03-18T04:59:58.271Z,1024.08
2019-03-18T05:00:58.254Z,1024.17
2019-03-18T05:01:58.242Z,1024.25
2019-03-18T05:02:58.226Z,1024.21
2019-03-18T05:03:58.213Z,1024.24
2019-03-18T05:04:58.197Z,1024.31
2019-03-18T05:05:58.181Z,1024.25
2019-03-18T05:06:58.168Z,1024.26
2019-03-18T05:07:58.151Z,1024.3
2019-03-18T05:08:58.138Z,1024.33
2019-03-18T05:09:58.124Z,1024.33
2019-03-18T05:10:58.108Z,1024.32
2019-03-18T05:11:58.094Z,1024.29
2019-03-18T05:12:58.082Z,1024.31
2019-03-18T05:13:58.190Z,1024.32
2019-03-18T05:14:58.049Z,1024.33
2019-03-18T05:15:58.034Z,1024.3
2019-03-18T05:16:58.029Z,1024.29
2019-03-18T05:17:58.006Z,1024.27
2019-03-18T05:18:57.990Z,1024.32
2019-03-18T05:19:57.981Z,1024.36
2019-03-18T05:20:57.961Z,1024.36
2019-03-18T05:21:57.945Z,1024.32
2019-03-18T05:22:57.931Z,1024.21
2019-03-18T05:23:57.916Z,1024.24
2019-03-18T05:24:57.902Z,1024.15
2019-03-18T05:25:57.888Z,1024.15
2019-03-18T05:26:57.872Z,1023.99
2019-03-18T05:27:57.862Z,1023.96
2019-03-18T05:28:57.850Z,1023.89
2019-03-18T05:29:57.829Z,1023.82
2019-03-18T05:30:57.814Z,1023.78
2019-03-18T05:31:57.800Z,1023.7
2019-03-18T05:32:57.848Z,1023.79
2019-03-18T05:33:57.779Z,1023.74
2019-03-18T05:34:57.755Z,1023.69
2019-03-18T05:35:57.742Z,1023.69
2019-03-18T05:36:57.729Z,1023.66
2019-03-18T05:37:57.712Z,1023.61
2019-03-18T05:38:57.699Z,1023.4
2019-03-18T05:39:57.686Z,1023.28
2019-03-18T05:40:57.671Z,1023.09
2019-03-18T05:41:57.656Z,1022.93
2019-03-18T05:42:57.642Z,1022.98
2019-03-18T05:43:57.628Z,1023.06
2019-03-18T05:44:57.615Z,1023.18
2019-03-18T05:45:57.601Z,1023.2
2019-03-18T05:46:57.588Z,1023.25
2019-03-18T05:47:57.573Z,1023.3
2019-03-18T05:48:57.560Z,1023.34
2019-03-18T05:49:57.546Z,1023.38
2019-03-18T05:50:57.533Z,1023.36
2019-03-18T05:51:57.533Z,1023.39
2019-03-18T05:52:57.505Z,1023.42
2019-03-18T05:53:57.493Z,1023.42
2019-03-18T05:54:57.479Z,1023.39
2019-03-18T05:55:57.466Z,1023.45
2019-03-18T05:56:57.453Z,1023.47
2019-03-18T05:57:57.442Z,1023.55
2019-03-18T05:58:57.426Z,1023.57
2019-03-18T05:59:57.412Z,1023.61
2019-03-18T06:00:57.402Z,1023.61
2019-03-18T06:01:57.388Z,1023.63
2019-03-18T06:02:57.373Z,1023.56
2019-03-18T06:03:57.360Z,1023.64
2019-03-18T06:04:57.346Z,1023.65
2019-03-18T06:05:57.333Z,1023.6
2019-03-18T06:06:57.320Z,1023.51
2019-03-18T06:07:57.307Z,1023.53
2019-03-18T06:08:57.294Z,1023.45
2019-03-18T06:09:57.280Z,1023.46
2019-03-18T06:10:57.267Z,1023.51
2019-03-18T06:11:57.254Z,1023.52
2019-03-18T06:12:57.241Z,1023.53
2019-03-18T06:13:57.228Z,1023.56
2019-03-18T06:14:57.215Z,1023.54
2019-03-18T06:15:57.202Z,1023.54
2019-03-18T06:16:57.187Z,1023.55
2019-03-18T06:17:57.175Z,1023.58
2019-03-18T06:19:00.064Z,1023.57
2019-03-18T06:19:57.149Z,1023.49
2019-03-18T06:20:57.135Z,1023.65
2019-03-18T06:21:57.123Z,1023.65
2019-03-18T06:22:57.110Z,1023.68
2019-03-18T06:23:57.097Z,1023.75
2019-03-18T06:24:57.083Z,1023.67
2019-03-18T06:25:57.071Z,1023.69
2019-03-18T06:26:57.057Z,1023.69
2019-03-18T06:27:57.047Z,1023.73
2019-03-18T06:28:57.031Z,1023.78
2019-03-18T06:29:57.018Z,1023.74
2019-03-18T06:30:57.006Z,1023.84
2019-03-18T06:31:56.994Z,1023.8
2019-03-18T06:32:56.979Z,1023.81
2019-03-18T06:33:56.966Z,1023.73
2019-03-18T06:34:56.955Z,1023.7
2019-03-18T06:35:56.939Z,1023.67
2019-03-18T06:36:56.930Z,1023.71
2019-03-18T06:37:56.915Z,1023.56
2019-03-18T06:38:56.900Z,1023.52
2019-03-18T06:39:56.888Z,1023.52
2019-03-18T06:40:56.874Z,1023.51
2019-03-18T06:41:56.862Z,1023.5
2019-03-18T06:42:56.848Z,1023.47
2019-03-18T06:43:56.836Z,1023.41
2019-03-18T06:44:56.822Z,1023.45
2019-03-18T06:45:56.814Z,1023.47
2019-03-18T06:46:56.798Z,1023.34
2019-03-18T06:48:04.553Z,1023.39
2019-03-18T06:48:56.772Z,1023.28
2019-03-18T06:49:56.759Z,1023.26
2019-03-18T06:50:56.747Z,1023.38
2019-03-18T06:51:56.734Z,1023.39
2019-03-18T06:52:56.722Z,1023.42
2019-03-18T06:53:56.709Z,1023.37
2019-03-18T06:54:56.700Z,1023.44
2019-03-18T06:55:56.683Z,1023.47
2019-03-18T06:56:56.670Z,1023.36
2019-03-18T06:57:56.658Z,1023.4
2019-03-18T06:58:56.645Z,1023.38
2019-03-18T06:59:56.633Z,1023.42
2019-03-18T07:00:56.620Z,1023.36
2019-03-18T07:01:56.614Z,1023.42
2019-03-18T07:02:56.595Z,1023.35
2019-03-18T07:03:56.582Z,1023.38
2019-03-18T07:04:56.569Z,1023.41
2019-03-18T07:05:56.557Z,1023.39
2019-03-18T07:06:56.547Z,1023.3
2019-03-18T07:07:56.531Z,1023.29
2019-03-18T07:08:56.519Z,1023.28
2019-03-18T07:09:56.507Z,1023.26
2019-03-18T07:10:56.495Z,1023.25
2019-03-18T07:11:56.481Z,1023.21
2019-03-18T07:12:56.474Z,1023.2
2019-03-18T07:13:56.457Z,1023.12
2019-03-18T07:14:56.488Z,1023.07
2019-03-18T07:15:56.432Z,1023.05
2019-03-18T07:16:56.422Z,1022.94
2019-03-18T07:17:56.423Z,1022.96
2019-03-18T07:18:56.395Z,1022.98
2019-03-18T07:19:56.383Z,1022.95
2019-03-18T07:20:56.370Z,1023
2019-03-18T07:21:56.358Z,1022.94
2019-03-18T07:22:56.345Z,1023
2019-03-18T07:23:56.334Z,1022.9
2019-03-18T07:24:56.322Z,1022.96
2019-03-18T07:25:56.310Z,1022.89
2019-03-18T07:26:56.297Z,1022.83
2019-03-18T07:27:56.285Z,1022.77
2019-03-18T07:28:56.278Z,1022.82
2019-03-18T07:29:56.262Z,1022.81
2019-03-18T07:30:56.250Z,1022.84
2019-03-18T07:31:56.238Z,1022.96
2019-03-18T07:32:56.226Z,1022.96
2019-03-18T07:33:56.219Z,1022.9
2019-03-18T07:34:56.202Z,1022.86
2019-03-18T07:35:56.193Z,1022.86
2019-03-18T07:36:56.180Z,1022.79
2019-03-18T07:37:56.166Z,1022.78
2019-03-18T07:38:56.155Z,1022.71
2019-03-18T07:39:56.143Z,1022.62
2019-03-18T07:40:56.130Z,1022.6
2019-03-18T07:41:56.122Z,1022.6
2019-03-18T07:42:56.109Z,1022.56
2019-03-18T07:43:56.096Z,1022.53
2019-03-18T07:44:56.085Z,1022.43
2019-03-18T07:45:56.073Z,1022.48
2019-03-18T07:46:56.128Z,1022.56
2019-03-18T07:47:56.109Z,1022.61
2019-03-18T07:48:56.039Z,1022.56
2019-03-18T07:49:56.030Z,1022.59
2019-03-18T07:50:56.016Z,1022.6
2019-03-18T07:51:56.004Z,1022.58
2019-03-18T07:52:56.006Z,1022.61
2019-03-18T07:53:55.985Z,1022.54
2019-03-18T07:54:55.971Z,1022.52
2019-03-18T07:55:55.961Z,1022.55
2019-03-18T07:56:55.951Z,1022.49
2019-03-18T07:57:55.937Z,1022.37
2019-03-18T07:58:55.927Z,1022.39
2019-03-18T07:59:55.915Z,1022.45
2019-03-18T08:00:56.061Z,1022.44
2019-03-18T08:01:55.893Z,1022.42
2019-03-18T08:02:55.882Z,1022.25
2019-03-18T08:03:55.872Z,1022.31
2019-03-18T08:04:55.860Z,1022.35
2019-03-18T08:05:55.849Z,1022.34
2019-03-18T08:06:55.838Z,1022.35
2019-03-18T08:07:55.827Z,1022.39
2019-03-18T08:08:55.818Z,1022.42
2019-03-18T08:09:55.807Z,1022.36
2019-03-18T08:10:55.795Z,1022.49
2019-03-18T08:11:55.785Z,1022.45
2019-03-18T08:12:55.789Z,1022.35
2019-03-18T08:13:55.763Z,1022.32
2019-03-18T08:14:55.752Z,1022.21
2019-03-18T08:15:55.746Z,1022.19
2019-03-18T08:16:55.732Z,1022.03
2019-03-18T08:17:55.721Z,1022.01
2019-03-18T08:18:55.710Z,1021.97
2019-03-18T08:19:55.700Z,1021.97
2019-03-18T08:20:55.690Z,1021.86
2019-03-18T08:21:55.680Z,1021.86
2019-03-18T08:22:55.671Z,1021.8
2019-03-18T08:23:55.660Z,1021.74
2019-03-18T08:24:55.649Z,1021.74
2019-03-18T08:25:55.639Z,1021.88
2019-03-18T08:26:55.629Z,1021.95
2019-03-18T08:27:55.622Z,1021.85
2019-03-18T08:28:55.612Z,1021.86
2019-03-18T08:29:55.600Z,1021.82
2019-03-18T08:30:55.589Z,1021.84
2019-03-18T08:31:55.578Z,1021.74
2019-03-18T08:32:55.568Z,1021.65
2019-03-18T08:33:55.559Z,1021.62
2019-03-18T08:34:55.549Z,1021.68
2019-03-18T08:35:55.538Z,1021.69
2019-03-18T08:36:55.529Z,1021.72
2019-03-18T08:37:55.522Z,1021.73
2019-03-18T08:38:55.510Z,1021.63
2019-03-18T08:39:55.499Z,1021.52
2019-03-18T08:40:55.490Z,1021.56
2019-03-18T08:41:55.480Z,1021.58
2019-03-18T08:42:55.470Z,1021.59
2019-03-18T08:43:55.461Z,1021.53
2019-03-18T08:44:55.451Z,1021.44
2019-03-18T08:45:55.469Z,1021.47
2019-03-18T08:46:55.434Z,1021.42
2019-03-18T08:47:55.432Z,1021.44
2019-03-18T08:48:56.174Z,1021.37
2019-03-18T08:49:55.403Z,1021.35
2019-03-18T08:50:55.394Z,1021.25
2019-03-18T08:51:55.385Z,1021.24
2019-03-18T08:52:55.376Z,1021.17
2019-03-18T08:53:55.367Z,1021.11
2019-03-18T08:54:55.358Z,1021.07
2019-03-18T08:55:55.348Z,1020.82
2019-03-18T08:56:55.339Z,1020.82
2019-03-18T08:57:55.334Z,1020.74
2019-03-18T08:58:55.320Z,1020.64
2019-03-18T08:59:55.314Z,1020.57
2019-03-18T09:00:55.303Z,1020.58
2019-03-18T09:01:55.293Z,1020.68
2019-03-18T09:02:56.424Z,1020.52
2019-03-18T09:03:55.278Z,1020.35
2019-03-18T09:04:55.267Z,1020.39
2019-03-18T09:05:55.261Z,1020.46
2019-03-18T09:06:55.251Z,1020.46
2019-03-18T09:07:55.244Z,1020.63
2019-03-18T09:08:55.234Z,1020.73
2019-03-18T09:09:55.226Z,1020.84
2019-03-18T09:10:55.265Z,1020.93
2019-03-18T09:11:55.223Z,1021.15
2019-03-18T09:12:55.200Z,1021.31
2019-03-18T09:13:55.208Z,1021.46
2019-03-18T09:14:55.184Z,1021.58
2019-03-18T09:15:55.175Z,1021.53
2019-03-18T09:16:55.167Z,1021.62
2019-03-18T09:17:55.159Z,1021.55
2019-03-18T09:19:07.600Z,1021.58
2019-03-18T09:19:55.141Z,1021.57
2019-03-18T09:20:55.133Z,1021.71
2019-03-18T09:21:55.125Z,1021.74
2019-03-18T09:22:55.117Z,1021.84
2019-03-18T09:23:55.107Z,1021.87
2019-03-18T09:24:55.098Z,1021.93
2019-03-18T09:25:55.096Z,1022.01
2019-03-18T09:27:02.122Z,1022.05
2019-03-18T09:27:55.071Z,1022.15
2019-03-18T09:28:55.063Z,1022.25
2019-03-18T09:29:55.054Z,1022.23
2019-03-18T09:30:55.046Z,1022.31
2019-03-18T09:31:55.036Z,1022.41
2019-03-18T09:32:55.027Z,1022.46
2019-03-18T09:33:55.018Z,1022.52
2019-03-18T09:34:55.008Z,1022.54
2019-03-18T09:35:54.999Z,1022.48
2019-03-18T09:36:54.990Z,1022.39
2019-03-18T09:37:54.980Z,1022.41
2019-03-18T09:38:54.971Z,1022.39
2019-03-18T09:39:54.961Z,1022.33
2019-03-18T09:40:54.953Z,1022.35
2019-03-18T09:41:54.943Z,1022.25
2019-03-18T09:42:54.933Z,1022.19
2019-03-18T09:43:54.924Z,1022.13
2019-03-18T09:44:54.915Z,1022.05
2019-03-18T09:45:54.905Z,1021.91
2019-03-18T09:46:54.898Z,1021.76
2019-03-18T09:47:56.188Z,1021.77
2019-03-18T09:48:54.876Z,1021.73
2019-03-18T09:49:54.878Z,1021.7
2019-03-18T09:50:54.859Z,1021.68
2019-03-18T09:51:54.850Z,1021.59
2019-03-18T09:52:54.840Z,1021.46
2019-03-18T09:53:54.831Z,1021.63
2019-03-18T09:54:54.823Z,1021.68
2019-03-18T09:55:54.813Z,1021.76
2019-03-18T09:56:54.805Z,1021.93
2019-03-18T09:57:54.796Z,1021.9
2019-03-18T09:58:54.786Z,1021.98
2019-03-18T09:59:54.777Z,1022.11
2019-03-18T10:00:55.379Z,1022.09
2019-03-18T10:01:54.759Z,1022.22
2019-03-18T10:02:54.754Z,1022.18
2019-03-18T10:03:54.740Z,1022.24
2019-03-18T10:04:54.732Z,1022.16
2019-03-18T10:05:54.724Z,1022.05
2019-03-18T10:06:54.713Z,1021.87
2019-03-18T10:07:54.710Z,1021.84
2019-03-18T10:08:54.696Z,1021.98
2019-03-18T10:09:54.686Z,1021.87
2019-03-18T10:10:54.677Z,1021.85
2019-03-18T10:11:54.673Z,1022
2019-03-18T10:12:54.660Z,1021.94
2019-03-18T10:13:54.651Z,1021.81
2019-03-18T10:14:54.642Z,1021.65
2019-03-18T10:15:54.633Z,1021.65
2019-03-18T10:16:54.625Z,1021.54
2019-03-18T10:17:54.621Z,1021.48
2019-03-18T10:18:54.607Z,1021.22
2019-03-18T10:19:54.598Z,1021.29
2019-03-18T10:20:54.590Z,1021.34
2019-03-18T10:21:54.581Z,1021.37
2019-03-18T10:22:54.574Z,1021.57
2019-03-18T10:23:54.565Z,1021.43
2019-03-18T10:24:54.556Z,1021.52
2019-03-18T10:25:54.655Z,1021.7
2019-03-18T10:26:54.539Z,1021.91
2019-03-18T10:27:54.531Z,1022.12
2019-03-18T10:28:54.522Z,1022.23
2019-03-18T10:29:54.519Z,1022.48
2019-03-18T10:30:54.506Z,1022.54
2019-03-18T10:31:54.496Z,1022.68
2019-03-18T10:32:54.487Z,1022.8
2019-03-18T10:33:54.479Z,1022.76
2019-03-18T10:34:54.471Z,1022.77
2019-03-18T10:35:54.462Z,1022.79
2019-03-18T10:36:54.452Z,1022.79
2019-03-18T10:37:54.444Z,1022.69
2019-03-18T10:38:54.439Z,1022.42
2019-03-18T10:39:54.425Z,1022.51
2019-03-18T10:40:54.417Z,1022.48
2019-03-18T10:41:54.409Z,1022.38
2019-03-18T10:42:54.400Z,1022.38
2019-03-18T10:43:54.392Z,1022.39
2019-03-18T10:44:54.381Z,1022.27
2019-03-18T10:45:54.373Z,1022.41
2019-03-18T10:46:54.366Z,1022.3
2019-03-18T10:47:54.958Z,1022.23
2019-03-18T10:48:54.346Z,1022.1
2019-03-18T10:49:54.337Z,1022.1
2019-03-18T10:50:54.327Z,1022.22
2019-03-18T10:51:54.319Z,1022.36
2019-03-18T10:52:54.356Z,1022.4
2019-03-18T10:53:54.305Z,1022.43
2019-03-18T10:54:54.311Z,1022.49
2019-03-18T10:55:54.284Z,1022.53
2019-03-18T10:56:54.277Z,1022.48
2019-03-18T10:57:54.270Z,1022.32
2019-03-18T10:58:54.258Z,1022.23
2019-03-18T10:59:54.250Z,1021.95
2019-03-18T11:00:54.241Z,1021.73
2019-03-18T11:01:54.232Z,1021.54
2019-03-18T11:02:54.223Z,1021.38
2019-03-18T11:03:54.222Z,1021.27
2019-03-18T11:04:54.207Z,1021.25
2019-03-18T11:05:54.198Z,1021.15
2019-03-18T11:06:54.190Z,1020.91
2019-03-18T11:07:54.185Z,1020.97
2019-03-18T11:08:54.174Z,1020.93
2019-03-18T11:09:54.165Z,1021.05
2019-03-18T11:10:54.159Z,1021
2019-03-18T11:11:54.151Z,1021
2019-03-18T11:12:54.142Z,1021.05
2019-03-18T11:13:54.134Z,1021.05
2019-03-18T11:14:54.127Z,1020.94
2019-03-18T11:15:54.119Z,1020.91
2019-03-18T11:16:54.132Z,1020.85
2019-03-18T11:17:54.104Z,1020.72
2019-03-18T11:18:54.097Z,1020.69
2019-03-18T11:19:58.565Z,1020.68
2019-03-18T11:20:54.082Z,1020.47
2019-03-18T11:21:54.073Z,1020.44
2019-03-18T11:22:54.067Z,1020.34
2019-03-18T11:23:54.061Z,1020.24
2019-03-18T11:24:54.053Z,1020.35
2019-03-18T11:25:54.046Z,1020.47
2019-03-18T11:26:55.319Z,1020.58
2019-03-18T11:27:54.032Z,1020.66
2019-03-18T11:28:54.027Z,1020.87
2019-03-18T11:29:54.018Z,1020.97
2019-03-18T11:30:54.012Z,1021.04
2019-03-18T11:31:54.007Z,1021.07
2019-03-18T11:32:54.000Z,1021.11
2019-03-18T11:33:53.992Z,1021.1
2019-03-18T11:34:53.984Z,1021.06
2019-03-18T11:35:55.712Z,1021.11
2019-03-18T11:36:53.971Z,1021.19
2019-03-18T11:37:53.967Z,1021.12
2019-03-18T11:38:53.957Z,1021.14
2019-03-18T11:39:53.950Z,1021.21
2019-03-18T11:40:53.963Z,1021.08
2019-03-18T11:41:53.936Z,1020.99
2019-03-18T11:42:53.929Z,1020.92
2019-03-18T11:43:53.923Z,1020.74
2019-03-18T11:44:53.916Z,1020.81
2019-03-18T11:45:53.908Z,1020.94
2019-03-18T11:46:53.901Z,1020.92
2019-03-18T11:47:53.897Z,1020.96
2019-03-18T11:48:53.888Z,1020.94
2019-03-18T11:49:53.880Z,1020.98
2019-03-18T11:50:53.873Z,1021
2019-03-18T11:51:53.868Z,1021.14
2019-03-18T11:52:53.861Z,1021.21
2019-03-18T11:53:53.853Z,1021.2
2019-03-18T11:54:53.846Z,1021.32
2019-03-18T11:55:53.840Z,1021.27
2019-03-18T11:56:53.832Z,1021.21
2019-03-18T11:57:53.825Z,1021.18
2019-03-18T11:58:53.819Z,1021.1
2019-03-18T11:59:53.812Z,1021.11
2019-03-18T12:00:53.804Z,1020.93
2019-03-18T12:01:53.798Z,1021.08
2019-03-18T12:02:53.791Z,1021.11
2019-03-18T12:03:53.783Z,1021.15
2019-03-18T12:04:53.776Z,1021.34
2019-03-18T12:05:53.769Z,1021.43
2019-03-18T12:06:53.762Z,1021.38
2019-03-18T12:07:53.754Z,1021.44